createdAt,value
2023-01-28T00:01:07.521Z,6.40
2023-01-28T00:03:35.915Z,6.20
2023-01-28T00:06:05.415Z,5.27
2023-01-28T00:08:34.359Z,5.67
2023-01-28T00:11:03.641Z,5.73
2023-01-28T00:13:34.105Z,6.10
2023-01-28T00:16:05.175Z,5.80
2023-01-28T00:18:34.474Z,5.33
2023-01-28T00:21:04.928Z,6.00
2023-01-28T00:23:34.829Z,5.40
2023-01-28T00:26:05.227Z,5.50
2023-01-28T00:28:35.597Z,6.87
2023-01-28T00:31:09.935Z,5.67
2023-01-28T00:33:38.328Z,5.57
2023-01-28T00:36:07.906Z,5.40
2023-01-28T00:38:36.648Z,5.70
2023-01-28T00:41:12.492Z,5.70
2023-01-28T00:43:43.318Z,5.30
2023-01-28T00:46:14.042Z,5.70
2023-01-28T00:48:43.978Z,5.70
2023-01-28T00:51:17.252Z,5.53
2023-01-28T00:53:46.150Z,6.20
2023-01-28T00:56:15.936Z,6.40
2023-01-28T00:58:45.591Z,5.70
2023-01-28T01:01:15.535Z,6.33
2023-01-28T01:03:44.709Z,5.90
2023-01-28T01:06:15.434Z,6.13
2023-01-28T01:08:50.563Z,6.10
2023-01-28T01:11:19.797Z,6.50
2023-01-28T01:13:54.883Z,6.83
2023-01-28T01:16:24.131Z,7.10
2023-01-28T01:18:52.970Z,6.20
2023-01-28T01:21:23.612Z,7.23
2023-01-28T01:23:52.934Z,8.73
2023-01-28T01:26:21.701Z,8.40
2023-01-28T01:28:51.584Z,8.50
2023-01-28T01:31:22.725Z,7.07
2023-01-28T01:33:53.051Z,7.57
2023-01-28T01:36:22.126Z,7.43
2023-01-28T01:38:54.645Z,7.63
2023-01-28T01:41:29.092Z,7.63
2023-01-28T01:43:59.220Z,7.23
2023-01-28T01:46:34.873Z,7.10
2023-01-28T01:49:14.101Z,8.17
2023-01-28T01:51:42.551Z,7.90
2023-01-28T01:54:10.821Z,7.07
2023-01-28T01:56:42.281Z,7.17
2023-01-28T01:59:13.305Z,7.67
2023-01-28T02:01:45.572Z,8.50
2023-01-28T02:04:20.971Z,7.47
2023-01-28T02:06:51.711Z,8.00
2023-01-28T02:09:26.422Z,9.00
2023-01-28T02:11:56.658Z,7.77
2023-01-28T02:14:31.355Z,7.93
2023-01-28T02:17:02.570Z,8.50
2023-01-28T02:19:39.021Z,7.80
2023-01-28T02:22:24.579Z,8.30
2023-01-28T02:25:17.840Z,8.50
2023-01-28T02:28:15.741Z,8.97
2023-01-28T02:30:48.810Z,8.30
2023-01-28T02:33:24.445Z,9.23
2023-01-28T02:35:55.411Z,8.50
2023-01-28T02:38:31.357Z,8.80
2023-01-28T02:41:06.555Z,8.87
2023-01-28T02:43:39.124Z,9.37
2023-01-28T02:46:36.702Z,8.17
2023-01-28T02:49:07.607Z,5.33
2023-01-28T02:51:54.081Z,4.83
2023-01-28T02:54:34.238Z,4.10
2023-01-28T02:57:17.227Z,4.00
2023-01-28T02:59:52.495Z,2.90
2023-01-28T03:02:25.853Z,3.50
2023-01-28T03:05:01.315Z,3.53
2023-01-28T03:07:32.406Z,3.67
2023-01-28T03:10:06.092Z,3.10
2023-01-28T03:12:54.093Z,3.00
2023-01-28T03:15:44.424Z,3.57
2023-01-28T03:18:34.485Z,3.60
2023-01-28T03:21:25.464Z,3.90
2023-01-28T03:24:16.130Z,4.27
2023-01-28T03:27:07.228Z,3.40
2023-01-28T03:29:55.174Z,4.27
2023-01-28T03:32:43.791Z,4.80
2023-01-28T03:35:32.456Z,6.00
2023-01-28T03:38:01.048Z,5.53
2023-01-28T03:40:30.250Z,5.30
2023-01-28T03:43:00.734Z,5.50
2023-01-28T03:45:36.075Z,5.47
2023-01-28T03:48:08.134Z,5.93
2023-01-28T03:50:38.564Z,5.60
2023-01-28T03:53:16.884Z,5.77
2023-01-28T03:55:50.801Z,5.10
2023-01-28T03:58:20.352Z,4.60
2023-01-28T04:00:48.588Z,5.10
2023-01-28T04:03:20.478Z,4.80
2023-01-28T04:06:05.937Z,4.97
2023-01-28T04:08:59.392Z,5.83
2023-01-28T04:11:28.083Z,5.37
2023-01-28T04:13:58.003Z,5.73
2023-01-28T04:16:28.548Z,5.70
2023-01-28T04:18:59.296Z,4.77
2023-01-28T04:21:27.609Z,5.80
2023-01-28T04:23:55.880Z,5.00
2023-01-28T04:26:24.459Z,5.77
2023-01-28T04:28:53.631Z,6.27
2023-01-28T04:31:24.558Z,6.23
2023-01-28T04:34:22.524Z,6.47
2023-01-28T04:37:04.889Z,5.53
2023-01-28T04:40:19.400Z,5.77
2023-01-28T04:43:03.218Z,5.53
2023-01-28T04:45:53.473Z,5.73
2023-01-28T04:48:46.801Z,8.77
2023-01-28T04:51:38.939Z,13.67
2023-01-28T04:54:37.513Z,17.10
2023-01-28T04:57:08.873Z,14.17
2023-01-28T04:59:42.908Z,10.10
2023-01-28T05:02:13.548Z,7.10
2023-01-28T05:04:50.771Z,6.40
2023-01-28T05:07:42.426Z,6.13
2023-01-28T05:10:16.504Z,6.80
2023-01-28T05:13:00.752Z,6.00
2023-01-28T05:15:32.201Z,6.00
2023-01-28T05:18:06.425Z,6.43
2023-01-28T05:20:42.188Z,5.83
2023-01-28T05:23:14.232Z,5.90
2023-01-28T05:25:58.345Z,5.93
2023-01-28T05:28:30.500Z,6.40
2023-01-28T05:31:20.512Z,7.17
2023-01-28T05:33:50.608Z,6.80
2023-01-28T05:36:26.336Z,7.43
2023-01-28T05:39:03.411Z,6.53
2023-01-28T05:41:45.442Z,7.37
2023-01-28T05:44:18.228Z,7.90
2023-01-28T05:47:02.250Z,7.53
2023-01-28T05:49:49.363Z,10.00
2023-01-28T05:52:42.252Z,17.30
2023-01-28T05:55:22.745Z,17.10
2023-01-28T05:57:53.880Z,13.37
2023-01-28T06:00:28.239Z,10.97
2023-01-28T06:03:04.661Z,9.93
2023-01-28T06:05:39.342Z,9.27
2023-01-28T06:08:13.517Z,11.73
2023-01-28T06:10:48.061Z,10.17
2023-01-28T06:13:19.566Z,10.43
2023-01-28T06:16:18.099Z,11.60
2023-01-28T06:19:06.313Z,13.20
2023-01-28T06:21:39.026Z,12.90
2023-01-28T06:24:14.090Z,13.20
2023-01-28T06:26:47.277Z,13.73
2023-01-28T06:29:22.126Z,14.00
2023-01-28T06:31:52.491Z,14.53
2023-01-28T06:34:22.810Z,13.50
2023-01-28T06:36:55.703Z,14.90
2023-01-28T06:39:27.800Z,17.13
2023-01-28T06:41:57.508Z,15.87
2023-01-28T06:44:26.138Z,14.47
2023-01-28T06:46:54.253Z,13.67
2023-01-28T06:49:22.568Z,14.40
2023-01-28T06:51:50.792Z,12.90
2023-01-28T06:54:19.043Z,14.70
2023-01-28T06:56:47.211Z,13.40
2023-01-28T06:59:16.725Z,13.67
2023-01-28T07:01:44.994Z,12.00
2023-01-28T07:04:13.196Z,12.10
2023-01-28T07:06:41.435Z,13.90
2023-01-28T07:09:09.704Z,14.70
2023-01-28T07:11:37.941Z,20.63
2023-01-28T07:14:06.292Z,18.20
2023-01-28T07:16:35.875Z,16.47
2023-01-28T07:19:04.224Z,14.93
2023-01-28T07:21:32.869Z,14.20
2023-01-28T07:24:01.000Z,14.47
2023-01-28T07:26:29.239Z,15.97
2023-01-28T07:28:57.457Z,13.87
2023-01-28T07:31:25.814Z,14.77
2023-01-28T07:33:55.445Z,13.50
2023-01-28T07:36:23.652Z,13.60
2023-01-28T07:38:51.957Z,13.90
2023-01-28T07:41:20.188Z,12.27
2023-01-28T07:43:49.456Z,11.20
2023-01-28T07:46:18.538Z,10.07
2023-01-28T07:48:46.771Z,9.70
2023-01-28T07:51:16.387Z,10.07
2023-01-28T07:53:44.531Z,9.60
2023-01-28T07:56:12.741Z,9.20
2023-01-28T07:58:40.939Z,9.83
2023-01-28T08:01:09.092Z,10.80
2023-01-28T08:03:37.744Z,11.77
2023-01-28T08:06:06.583Z,12.50
2023-01-28T08:08:36.676Z,14.40
2023-01-28T08:11:08.862Z,16.50
2023-01-28T08:13:37.742Z,19.70
2023-01-28T08:16:07.062Z,18.90
2023-01-28T08:18:35.630Z,18.93
2023-01-28T08:21:05.124Z,21.43
2023-01-28T08:23:38.154Z,20.03
2023-01-28T08:26:06.453Z,18.23
2023-01-28T08:28:35.135Z,16.97
2023-01-28T08:31:04.243Z,14.97
2023-01-28T08:33:32.633Z,13.70
2023-01-28T08:36:04.211Z,13.40
2023-01-28T08:38:32.613Z,13.53
2023-01-28T08:41:02.257Z,13.27
2023-01-28T08:43:30.542Z,14.13
2023-01-28T08:45:58.903Z,17.07
2023-01-28T08:48:27.180Z,22.07
2023-01-28T08:50:59.331Z,19.90
2023-01-28T08:53:28.018Z,20.10
2023-01-28T08:55:56.431Z,21.70
2023-01-28T08:58:26.187Z,21.03
2023-01-28T09:00:54.384Z,22.13
2023-01-28T09:03:22.662Z,20.53
2023-01-28T09:05:51.084Z,20.50
2023-01-28T09:08:19.364Z,20.30
2023-01-28T09:10:47.592Z,21.67
2023-01-28T09:13:16.939Z,22.00
2023-01-28T09:15:46.563Z,20.13
2023-01-28T09:18:14.901Z,22.70
2023-01-28T09:20:43.088Z,20.17
2023-01-28T09:23:11.804Z,20.33
2023-01-28T09:25:40.353Z,20.07
2023-01-28T09:28:08.512Z,19.67
2023-01-28T09:30:38.145Z,18.20
2023-01-28T09:33:08.736Z,18.63
2023-01-28T09:35:37.092Z,38.80
2023-01-28T09:38:05.705Z,23.43
2023-01-28T09:40:37.829Z,18.40
2023-01-28T09:43:27.649Z,16.60
2023-01-28T09:45:59.852Z,16.20
2023-01-28T09:48:34.035Z,16.40
2023-01-28T09:51:02.845Z,15.03
2023-01-28T09:53:34.672Z,17.03
2023-01-28T09:56:05.320Z,18.03
2023-01-28T09:58:35.857Z,16.60
2023-01-28T10:01:20.638Z,15.97
2023-01-28T10:03:55.779Z,16.57
2023-01-28T10:06:31.214Z,16.00
2023-01-28T10:09:23.731Z,17.77
2023-01-28T10:12:02.929Z,18.10
2023-01-28T10:14:43.392Z,18.63
2023-01-28T10:17:17.538Z,15.87
2023-01-28T10:19:51.551Z,16.37
2023-01-28T10:22:25.745Z,16.17
2023-01-28T10:25:01.833Z,17.83
2023-01-28T10:27:32.403Z,17.10
2023-01-28T10:30:04.044Z,17.70
2023-01-28T10:32:34.441Z,18.73
2023-01-28T10:35:04.641Z,17.30
2023-01-28T10:37:36.761Z,17.37
2023-01-28T10:40:06.935Z,18.87
2023-01-28T10:42:36.771Z,18.10
2023-01-28T10:45:10.116Z,17.87
2023-01-28T10:47:42.244Z,16.47
2023-01-28T10:50:19.703Z,17.60
2023-01-28T10:52:55.505Z,18.97
2023-01-28T10:55:25.152Z,21.10
2023-01-28T10:57:54.561Z,19.50
2023-01-28T11:00:30.725Z,19.27
2023-01-28T11:02:59.161Z,18.00
2023-01-28T11:05:30.463Z,18.30
2023-01-28T11:08:07.507Z,17.80
2023-01-28T11:10:38.278Z,18.67
2023-01-28T11:13:08.126Z,17.63
2023-01-28T11:15:36.581Z,17.40
2023-01-28T11:18:09.217Z,19.10
2023-01-28T11:20:45.484Z,17.30
2023-01-28T11:23:22.999Z,17.70
2023-01-28T11:26:04.276Z,18.80
2023-01-28T11:28:33.405Z,17.60
2023-01-28T11:31:04.567Z,16.40
2023-01-28T11:33:37.293Z,17.60
2023-01-28T11:36:13.792Z,15.80
2023-01-28T11:38:53.890Z,61.63
2023-01-28T11:41:28.895Z,21.90
2023-01-28T11:43:58.806Z,19.27
2023-01-28T11:46:43.864Z,19.13
2023-01-28T11:49:19.399Z,18.03
2023-01-28T11:51:58.466Z,20.53
2023-01-28T11:54:41.126Z,19.60
2023-01-28T11:57:22.549Z,19.30
2023-01-28T12:00:12.461Z,17.83
2023-01-28T12:02:54.737Z,17.20
2023-01-28T12:05:42.879Z,19.00
2023-01-28T12:08:20.014Z,18.47
2023-01-28T12:11:12.316Z,17.47
2023-01-28T12:13:56.572Z,18.47
2023-01-28T12:16:48.026Z,17.33
2023-01-28T12:19:34.726Z,17.13
2023-01-28T12:22:18.762Z,17.60
2023-01-28T12:25:02.073Z,18.50
2023-01-28T12:27:41.538Z,19.23
2023-01-28T12:30:23.406Z,30.17
2023-01-28T12:33:06.869Z,23.77
2023-01-28T12:35:53.712Z,18.87
2023-01-28T12:38:33.777Z,20.10
2023-01-28T12:41:09.082Z,18.20
2023-01-28T12:43:48.043Z,17.40
2023-01-28T12:46:30.248Z,16.50
2023-01-28T12:49:04.608Z,17.73
2023-01-28T12:51:38.687Z,16.87
2023-01-28T12:54:15.016Z,15.77
2023-01-28T12:56:50.044Z,16.70
2023-01-28T12:59:23.691Z,15.63
2023-01-28T13:02:02.023Z,18.03
2023-01-28T13:04:37.282Z,17.70
2023-01-28T13:07:10.684Z,18.57
2023-01-28T13:09:50.655Z,19.03
2023-01-28T13:12:21.761Z,18.20
2023-01-28T13:14:52.611Z,19.47
2023-01-28T13:17:28.663Z,23.80
2023-01-28T13:19:58.400Z,23.57
2023-01-28T13:22:33.639Z,22.50
2023-01-28T13:25:26.056Z,18.83
2023-01-28T13:28:01.479Z,17.60
2023-01-28T13:30:32.033Z,19.70
2023-01-28T13:33:06.079Z,19.10
2023-01-28T13:35:36.592Z,18.53
2023-01-28T13:38:10.458Z,19.03
2023-01-28T13:40:41.565Z,17.93
2023-01-28T13:43:37.318Z,18.47
2023-01-28T13:46:10.842Z,19.03
2023-01-28T13:48:45.538Z,21.70
2023-01-28T13:51:20.523Z,21.97
2023-01-28T13:53:54.713Z,20.47
2023-01-28T13:56:26.829Z,22.33
2023-01-28T13:59:34.423Z,21.20
2023-01-28T14:02:23.512Z,20.57
2023-01-28T14:05:21.424Z,19.70
2023-01-28T14:08:18.103Z,20.50
2023-01-28T14:11:00.745Z,19.57
2023-01-28T14:13:56.036Z,20.10
2023-01-28T14:16:32.158Z,19.77
2023-01-28T14:19:03.762Z,20.03
2023-01-28T14:21:35.613Z,19.33
2023-01-28T14:24:04.241Z,17.93
2023-01-28T14:26:43.653Z,20.40
2023-01-28T14:29:23.087Z,18.07
2023-01-28T14:31:52.533Z,19.00
2023-01-28T14:34:27.496Z,17.73
2023-01-28T14:37:00.043Z,19.33
2023-01-28T14:39:30.387Z,19.10
2023-01-28T14:42:01.740Z,18.10
2023-01-28T14:44:33.700Z,17.83
2023-01-28T14:47:40.351Z,15.90
2023-01-28T14:50:26.305Z,15.70
2023-01-28T14:53:19.174Z,14.03
2023-01-28T14:55:54.258Z,15.83
2023-01-28T14:58:26.688Z,16.07
2023-01-28T15:00:56.431Z,19.70
2023-01-28T15:03:25.853Z,33.93
2023-01-28T15:06:14.996Z,61.47
2023-01-28T15:08:43.287Z,37.77
2023-01-28T15:11:16.366Z,26.60
2023-01-28T15:13:47.334Z,23.50
2023-01-28T15:16:22.920Z,20.90
2023-01-28T15:18:51.969Z,20.30
2023-01-28T15:21:26.139Z,19.50
2023-01-28T15:23:57.609Z,18.30
2023-01-28T15:26:28.407Z,17.83
2023-01-28T15:28:57.323Z,18.17
2023-01-28T15:31:28.267Z,19.57
2023-01-28T15:34:01.104Z,20.13
2023-01-28T15:36:33.534Z,19.87
2023-01-28T15:39:01.749Z,23.03
2023-01-28T15:41:35.719Z,20.60
2023-01-28T15:44:05.001Z,21.43
2023-01-28T15:46:33.862Z,20.40
2023-01-28T15:49:04.344Z,21.67
2023-01-28T15:51:34.968Z,24.00
2023-01-28T15:54:08.809Z,21.70
2023-01-28T15:56:37.963Z,24.33
2023-01-28T15:59:11.596Z,23.47
2023-01-28T16:01:39.869Z,23.10
2023-01-28T16:04:22.453Z,25.43
2023-01-28T16:06:53.155Z,23.23
2023-01-28T16:09:26.483Z,22.53
2023-01-28T16:12:01.917Z,25.73
2023-01-28T16:14:32.657Z,24.87
2023-01-28T16:17:01.234Z,51.30
2023-01-28T16:19:38.699Z,69.77
2023-01-28T16:22:09.825Z,39.57
2023-01-28T16:24:38.183Z,24.83
2023-01-28T16:27:08.216Z,26.00
2023-01-28T16:29:37.261Z,23.00
2023-01-28T16:32:05.802Z,25.23
2023-01-28T16:34:34.558Z,24.50
2023-01-28T16:37:03.223Z,24.80
2023-01-28T16:39:32.849Z,25.80
2023-01-28T16:42:01.156Z,22.57
2023-01-28T16:44:29.511Z,24.63
2023-01-28T16:46:57.903Z,28.10
2023-01-28T16:49:26.204Z,25.10
2023-01-28T16:51:54.903Z,25.40
2023-01-28T16:54:23.769Z,26.40
2023-01-28T16:56:54.298Z,23.63
2023-01-28T16:59:22.525Z,23.87
2023-01-28T17:01:51.420Z,24.87
2023-01-28T17:04:19.644Z,23.90
2023-01-28T17:06:48.051Z,25.77
2023-01-28T17:09:16.557Z,24.10
2023-01-28T17:11:44.801Z,25.27
2023-01-28T17:14:14.385Z,25.50
2023-01-28T17:16:42.643Z,24.90
2023-01-28T17:19:11.490Z,25.13
2023-01-28T17:21:39.753Z,25.93
2023-01-28T17:24:08.626Z,26.07
2023-01-28T17:26:38.062Z,25.30
2023-01-28T17:29:06.485Z,23.77
2023-01-28T17:31:36.621Z,24.27
2023-01-28T17:34:06.986Z,23.73
2023-01-28T17:36:36.663Z,25.57
2023-01-28T17:39:05.996Z,25.13
2023-01-28T17:41:34.538Z,26.63
2023-01-28T17:44:04.485Z,27.23
2023-01-28T17:46:33.568Z,29.10
2023-01-28T17:49:04.351Z,30.00
2023-01-28T17:51:32.648Z,30.50
2023-01-28T17:54:00.867Z,29.07
2023-01-28T17:56:31.138Z,28.73
2023-01-28T17:59:02.280Z,29.30
2023-01-28T18:01:31.825Z,28.93
2023-01-28T18:04:01.077Z,30.70
2023-01-28T18:06:33.243Z,28.00
2023-01-28T18:09:01.805Z,28.03
2023-01-28T18:11:31.971Z,28.40
2023-01-28T18:14:00.742Z,27.80
2023-01-28T18:16:29.037Z,26.50
2023-01-28T18:18:57.392Z,28.47
2023-01-28T18:21:46.545Z,28.50
2023-01-28T18:24:18.851Z,28.77
2023-01-28T18:26:47.034Z,28.03
2023-01-28T18:29:20.555Z,27.67
2023-01-28T18:31:49.677Z,29.23
2023-01-28T18:34:18.083Z,27.77
2023-01-28T18:36:47.720Z,26.87
2023-01-28T18:39:16.768Z,26.40
2023-01-28T18:41:45.009Z,28.33
2023-01-28T18:44:14.661Z,26.57
2023-01-28T18:46:43.382Z,27.87
2023-01-28T18:49:11.993Z,27.20
2023-01-28T18:51:40.108Z,27.30
2023-01-28T18:54:13.111Z,27.17
2023-01-28T18:56:42.485Z,27.00
2023-01-28T18:59:13.123Z,27.33
2023-01-28T19:01:42.712Z,26.70
2023-01-28T19:04:11.695Z,27.03
2023-01-28T19:06:39.988Z,27.17
2023-01-28T19:09:12.318Z,26.63
2023-01-28T19:11:41.607Z,26.50
2023-01-28T19:14:10.723Z,26.23
2023-01-28T19:16:39.081Z,29.10
2023-01-28T19:19:07.847Z,29.03
2023-01-28T19:21:36.542Z,30.50
2023-01-28T19:24:09.444Z,31.90
2023-01-28T19:26:39.427Z,31.73
2023-01-28T19:29:09.231Z,33.27
2023-01-28T19:31:38.464Z,34.47
2023-01-28T19:34:08.534Z,33.37
2023-01-28T19:36:37.155Z,34.07
2023-01-28T19:39:08.044Z,35.60
2023-01-28T19:41:38.490Z,38.53
2023-01-28T19:44:07.485Z,35.80
2023-01-28T19:46:37.215Z,36.00
2023-01-28T19:49:06.552Z,38.53
2023-01-28T19:51:37.965Z,37.80
2023-01-28T19:54:06.349Z,38.63
2023-01-28T19:56:37.520Z,42.37
2023-01-28T19:59:07.762Z,38.53
2023-01-28T20:01:36.718Z,37.47
2023-01-28T20:04:05.811Z,38.90
2023-01-28T20:06:36.017Z,38.60
2023-01-28T20:09:07.709Z,37.40
2023-01-28T20:11:37.048Z,37.30
2023-01-28T20:14:06.796Z,39.17
2023-01-28T20:16:36.673Z,42.00
2023-01-28T20:19:07.006Z,39.47
2023-01-28T20:21:37.164Z,38.50
2023-01-28T20:24:06.867Z,38.63
2023-01-28T20:26:42.939Z,40.43
2023-01-28T20:29:14.301Z,37.00
2023-01-28T20:32:05.311Z,37.67
2023-01-28T20:34:36.804Z,34.33
2023-01-28T20:37:10.394Z,34.40
2023-01-28T20:39:38.859Z,33.80
2023-01-28T20:42:12.273Z,38.23
2023-01-28T20:44:45.123Z,36.73
2023-01-28T20:47:13.465Z,37.70
2023-01-28T20:49:42.139Z,37.47
2023-01-28T20:52:10.499Z,35.90
2023-01-28T20:54:40.201Z,37.23
2023-01-28T20:57:10.660Z,45.33
2023-01-28T20:59:46.132Z,52.30
2023-01-28T21:02:19.010Z,52.13
2023-01-28T21:04:49.290Z,44.00
2023-01-28T21:07:20.157Z,42.77
2023-01-28T21:09:54.524Z,42.80
2023-01-28T21:12:24.805Z,40.43
2023-01-28T21:15:00.172Z,38.53
2023-01-28T21:17:31.805Z,39.90
2023-01-28T21:20:02.031Z,39.37
2023-01-28T21:22:35.655Z,40.07
2023-01-28T21:25:05.615Z,38.50
2023-01-28T21:27:35.653Z,41.27
2023-01-28T21:30:10.392Z,39.60
2023-01-28T21:32:39.305Z,38.77
2023-01-28T21:35:11.105Z,40.50
2023-01-28T21:37:49.526Z,41.13
2023-01-28T21:40:18.487Z,39.90
2023-01-28T21:42:47.351Z,30.60
2023-01-28T21:45:17.081Z,40.70
2023-01-28T21:47:45.341Z,40.97
2023-01-28T21:50:14.083Z,40.30
2023-01-28T21:52:42.417Z,37.80
2023-01-28T21:55:10.858Z,38.53
2023-01-28T21:57:39.340Z,38.50
2023-01-28T22:00:09.250Z,38.30
2023-01-28T22:02:41.486Z,39.00
2023-01-28T22:05:09.958Z,42.03
2023-01-28T22:07:38.495Z,40.40
2023-01-28T22:10:07.241Z,40.07
2023-01-28T22:12:35.611Z,40.53
2023-01-28T22:15:06.744Z,39.63
2023-01-28T22:17:34.982Z,40.03
2023-01-28T22:20:05.157Z,39.20
2023-01-28T22:22:33.296Z,38.70
2023-01-28T22:25:01.782Z,37.90
2023-01-28T22:27:30.046Z,37.73
2023-01-28T22:29:58.273Z,36.23
2023-01-28T22:32:26.677Z,36.20
2023-01-28T22:34:55.007Z,37.40
2023-01-28T22:37:24.588Z,37.60
2023-01-28T22:39:55.935Z,36.27
2023-01-28T22:42:24.463Z,37.60
2023-01-28T22:44:52.654Z,38.40
2023-01-28T22:47:21.049Z,37.43
2023-01-28T22:49:49.202Z,37.50
2023-01-28T22:52:17.550Z,35.63
2023-01-28T22:54:47.858Z,36.40
2023-01-28T22:57:16.034Z,35.87
2023-01-28T22:59:59.337Z,35.67
2023-01-28T23:02:28.488Z,35.60
2023-01-28T23:04:56.678Z,38.17
2023-01-28T23:07:24.826Z,35.73
2023-01-28T23:09:54.341Z,36.73
2023-01-28T23:12:22.596Z,35.77
2023-01-28T23:15:22.919Z,36.57
2023-01-28T23:18:08.397Z,36.73
2023-01-28T23:20:57.043Z,34.77
2023-01-28T23:23:57.340Z,37.50
2023-01-28T23:26:26.934Z,36.90
2023-01-28T23:28:55.108Z,38.00
2023-01-28T23:31:23.412Z,38.70
2023-01-28T23:33:51.796Z,37.70
2023-01-28T23:36:20.137Z,38.40
2023-01-28T23:38:48.426Z,37.17
2023-01-28T23:41:16.608Z,38.47
2023-01-28T23:43:46.669Z,38.90
2023-01-28T23:46:14.818Z,36.60
2023-01-28T23:48:43.146Z,38.60
2023-01-28T23:51:11.347Z,36.37
2023-01-28T23:53:39.996Z,37.37
2023-01-28T23:56:09.113Z,36.87
2023-01-28T23:58:43.611Z,36.47
